This is the latest recevied weather packets stored in our database for station/object N4OGP-WX. If no packets are shown the sender has not sent any weather packets the latest 10 day(s).
| Time | Temp. | Humidity | Pressure | Rain* | Wind** | Luminosity | Snow |
|---|---|---|---|---|---|---|---|
| 1778176858 | 22.22° C | 93% | 1010.8 hPa | 0 mm | - | - | - |
| 1778176798 | 22.22° C | 93% | 1010.8 hPa | 0 mm | - | - | - |
| 1778176708 | 22.22° C | 93% | 1010.9 hPa | 0 mm | - | - | - |
| 1778176648 | 22.22° C | 93% | 1011 hPa | 0 mm | - | - | - |
| 1778176558 | 22.22° C | 93% | 1011 hPa | 0 mm | - | - | - |
| 1778176498 | 23.89° C | 42% | 1020.4 hPa | 0 mm | - | - | - |
| 1778176438 | 23.89° C | 42% | 1020.4 hPa | 0 mm | - | - | - |
| 1778176348 | 23.89° C | 42% | 1020.4 hPa | 0 mm | - | - | - |
| 1778176258 | 23.89° C | 42% | 1020.4 hPa | 0 mm | - | - | - |
| 1778176168 | 22.78° C | 92% | 1011.5 hPa | 0 mm | - | - | - |
| 1778176108 | 22.78° C | 91% | 1011.4 hPa | 0 mm | - | - | - |
| 1778176018 | 22.78° C | 91% | 1011.5 hPa | 0 mm | - | - | - |
| 1778175958 | 22.78° C | 91% | 1011.5 hPa | 0 mm | - | - | - |
| 1778175898 | 22.78° C | 91% | 1011.5 hPa | 0 mm | - | - | - |
| 1778175808 | 23.89° C | 42% | 1020.4 hPa | 0 mm | - | - | - |
| 1778175718 | 23.89° C | 42% | 1020.4 hPa | 0 mm | - | - | - |
| 1778175628 | 23.89° C | 42% | 1020.4 hPa | 0 mm | - | - | - |
| 1778175568 | 23.89° C | 42% | 1020.4 hPa | 0 mm | - | - | - |
| 1778175478 | 23.89° C | 42% | 1020.4 hPa | 0 mm | - | - | - |
| 1778175418 | 23.33° C | 91% | 1011.6 hPa | 0 mm | - | - | - |
| 1778175328 | 23.33° C | 91% | 1011.6 hPa | 0 mm | - | - | - |
| 1778175268 | 23.33° C | 91% | 1011.5 hPa | 0 mm | - | - | - |
| 1778175208 | 23.33° C | 91% | 1011.4 hPa | 0 mm | - | - | - |
| 1778175148 | 23.89° C | 42% | 1020.4 hPa | 0 mm | - | - | - |
| 1778175088 | 23.33° C | 91% | 1011.3 hPa | 0 mm | - | - | - |
* Rain latest hour (hover to see other rain measurements)
** Current wind speed in m/s (hover to see current wind gust speed)